Rankings de siempre
Mejores tiempos personales válidos de equipo a través de todos los eventos y temporadas. Cada equipo aparece una vez por división.
Busca por nombre y abre la página donde está clasificado este récord de división.
13,786 equipos clasificados
| Pos. | Pos. AG | Equipo | Nacionalidad | Categoría de edad | TiempoMejor tiempo | Diferencia |
|---|---|---|---|---|---|---|
| 10351 | #233 | Delphine MAFFRE & Pascale LaurensFRA · W 50-54 · AG #233 | FRA | W 50-54 | 1:30:01 | +36:21 |
| 10352 | #1437 | Xian Wen Chan & Natalie SimSIN · W 35-39 · AG #1437 | SIN | W 35-39 | 1:30:01 | +36:21 |
| 10353 | #3581 | Soyoung Eo & Juyeon JeongKOR · W 30-34 · AG #3581 | KOR | W 30-34 | 1:30:02 | +36:22 |
| 10354 | #3582 | Bieke Dewulf & Nina DelsaertBEL · W 30-34 · AG #3582 | BEL | W 30-34 | 1:30:02 | +36:22 |
| 10355 | #1555 | Becky Turner & Cassie TaylorGBR · W 40-44 · AG #1555 | GBR | W 40-44 | 1:30:02 | +36:22 |
| 10356 | #1554 | Kerry Gough & Georgia BourneGBR · W 40-44 · AG #1554 | GBR | W 40-44 | 1:30:02 | +36:22 |
| 10357 | #1438 | Lucy Richards & Jade KensettGBR · W 35-39 · AG #1438 | GBR | W 35-39 | 1:30:02 | +36:22 |
| 10358 | #1786 | Linda Karbstein & Anna KarbsteinGER · W 25-29 · AG #1786 | GER | W 25-29 | 1:30:03 | +36:23 |
| 10359 | #3583 | Dominique Parsons & Heather ThorleyGBR · W 30-34 · AG #3583 | GBR | W 30-34 | 1:30:03 | +36:23 |
| 10360 | #1787 | Angelique Kritzinger & Michaela KellermanRSA · W 25-29 · AG #1787 | RSA | W 25-29 | 1:30:03 | +36:23 |
| 10361 | #3584 | Teresa Palmira Russo & Claudia CrivellinITA · W 30-34 · AG #3584 | ITA | W 30-34 | 1:30:03 | +36:23 |
| 10362 | -- | Julia Echevarría & Isabella OlveraMEX · W WU29 | MEX | W WU29 | 1:30:03 | +36:23 |
| 10363 | #1439 | Katharina Juschkat & Vivien NeumannGER · W 35-39 · AG #1439 | GER | W 35-39 | 1:30:04 | +36:24 |
| 10364 | #1556 | Katherine Goodale & Fay ReadmanGBR · W 40-44 · AG #1556 | GBR | W 40-44 | 1:30:04 | +36:24 |
| 10365 | #3585 | Sara Rodrigues & Claire HendersonW 30-34 · AG #3585 | -- | W 30-34 | 1:30:04 | +36:24 |
| 10366 | #3586 | Gigi Glogovac & Allison ReinertUSA · W 30-34 · AG #3586 | USA | W 30-34 | 1:30:04 | +36:24 |
| 10367 | -- | Ilse VAN DER NIET & Britt KALLENED · W WU29 | NED | W WU29 | 1:30:04 | +36:24 |
| 10368 | #1557 | Aleksandra Niemiec & Aleksandra Ślączka-LebiedzińskaPOL · W 40-44 · AG #1557 | POL | W 40-44 | 1:30:04 | +36:24 |
| 10369 | #1788 | Jessica Whyte & Eleanor BradGBR · W 25-29 · AG #1788 | GBR | W 25-29 | 1:30:05 | +36:25 |
| 10370 | #3587 | Carly Richards & Maddison TooneGBR · W 30-34 · AG #3587 | GBR | W 30-34 | 1:30:05 | +36:25 |
| 10371 | #1440 | Wieke Van Enst & Linda SchaapNED · W 35-39 · AG #1440 | NED | W 35-39 | 1:30:05 | +36:25 |
| 10372 | #3590 | 婉萍 周 & 怡廷 林TPE · W 30-34 · AG #3590 | TPE | W 30-34 | 1:30:05 | +36:25 |
| 10373 | #3589 | Nicki Forte & Cindy IzquierdoUSA · W 30-34 · AG #3589 | USA | W 30-34 | 1:30:05 | +36:25 |
| 10374 | #3588 | Rebecca Arcia & Taylor SmithUSA · W 30-34 · AG #3588 | USA | W 30-34 | 1:30:05 | +36:25 |
| 10375 | #347 | Elaine Presdee & Kayleigh HainesGBR · W 45-49 · AG #347 | GBR | W 45-49 | 1:30:05 | +36:25 |
Página 415 de 552